SAS1707 EFHK-EKCH
Flight info
| Callsign | SAS1707 |
|---|---|
| Flight time | 1h 27m |
| Altitude | 38000 |
| Route | NUNTO Y369 REKDO DCT KOSKA DCT TOKSI N872 ERNOV |
| Aircraft | A20N/M-SDE2E3FGHIRWXY/LB1 |
Departure
| Time | 2026-04-25 11:28 |
|---|---|
| Airport | Helsinki Vantaa Airport (EFHK) |
Arrival
| Time | 2026-04-25 12:55 |
|---|---|
| Airport | Copenhagen Kastrup Airport (EKCH) |
| Time | Latitude | Longitude | Altitude | Speed | Heading |
|---|---|---|---|---|---|
| 2026-04-25 11:05 | 60.31747 | 24.97116 | 192 ft | 0 kts | 243° |
| 2026-04-25 11:18 | 60.31747 | 24.97118 | 192 ft | 1 kts | 243° |
| 2026-04-25 11:18 | 60.31753 | 24.97144 | 192 ft | 2 kts | 243° |
| 2026-04-25 11:18 | 60.31760 | 24.97170 | 192 ft | 2 kts | 243° |
| 2026-04-25 11:19 | 60.31767 | 24.97198 | 192 ft | 2 kts | 249° |
| 2026-04-25 11:19 | 60.31768 | 24.97228 | 192 ft | 2 kts | 284° |
| 2026-04-25 11:19 | 60.31762 | 24.97255 | 192 ft | 2 kts | 313° |
| 2026-04-25 11:19 | 60.31754 | 24.97267 | 192 ft | 0 kts | 331° |
| 2026-04-25 11:20 | 60.31748 | 24.97273 | 192 ft | 0 kts | 334° |
| 2026-04-25 11:21 | 60.31749 | 24.97273 | 192 ft | 0 kts | 334° |
| 2026-04-25 11:22 | 60.31762 | 24.97259 | 192 ft | 4 kts | 333° |
| 2026-04-25 11:22 | 60.31802 | 24.97218 | 191 ft | 8 kts | 333° |
| 2026-04-25 11:22 | 60.31869 | 24.97149 | 189 ft | 13 kts | 332° |
| 2026-04-25 11:22 | 60.31964 | 24.97048 | 185 ft | 17 kts | 332° |
| 2026-04-25 11:23 | 60.32087 | 24.96917 | 180 ft | 21 kts | 330° |
| 2026-04-25 11:23 | 60.32223 | 24.96759 | 177 ft | 22 kts | 329° |
| 2026-04-25 11:23 | 60.32352 | 24.96604 | 179 ft | 20 kts | 330° |
| 2026-04-25 11:23 | 60.32466 | 24.96470 | 185 ft | 17 kts | 329° |
| 2026-04-25 11:24 | 60.32562 | 24.96357 | 189 ft | 15 kts | 329° |
| 2026-04-25 11:24 | 60.32655 | 24.96249 | 192 ft | 15 kts | 330° |
| 2026-04-25 11:24 | 60.32753 | 24.96139 | 194 ft | 16 kts | 329° |
| 2026-04-25 11:24 | 60.32850 | 24.96022 | 196 ft | 16 kts | 330° |
| 2026-04-25 11:25 | 60.32956 | 24.95898 | 196 ft | 18 kts | 330° |
| 2026-04-25 11:25 | 60.33070 | 24.95764 | 198 ft | 18 kts | 325° |
| 2026-04-25 11:25 | 60.33165 | 24.95592 | 202 ft | 17 kts | 316° |
| 2026-04-25 11:25 | 60.33202 | 24.95397 | 205 ft | 14 kts | 255° |
| 2026-04-25 11:26 | 60.33138 | 24.95233 | 206 ft | 14 kts | 229° |
| 2026-04-25 11:26 | 60.33110 | 24.95054 | 206 ft | 14 kts | 272° |
| 2026-04-25 11:26 | 60.33115 | 24.94822 | 204 ft | 18 kts | 272° |
| 2026-04-25 11:26 | 60.33120 | 24.94551 | 203 ft | 20 kts | 273° |
| 2026-04-25 11:27 | 60.33032 | 24.94207 | 204 ft | 47 kts | 227° |
| 2026-04-25 11:27 | 60.32651 | 24.93356 | 197 ft | 116 kts | 227° |
| 2026-04-25 11:27 | 60.31986 | 24.91822 | 260 ft | 164 kts | 232° |
| 2026-04-25 11:27 | 60.31481 | 24.90644 | 645 ft | 168 kts | 229° |
| 2026-04-25 11:28 | 60.30439 | 24.88404 | 1706 ft | 165 kts | 234° |
| 2026-04-25 11:28 | 60.29805 | 24.86562 | 2410 ft | 167 kts | 244° |
| 2026-04-25 11:28 | 60.29302 | 24.84350 | 2858 ft | 181 kts | 250° |
| 2026-04-25 11:28 | 60.28802 | 24.81898 | 3280 ft | 200 kts | 250° |
| 2026-04-25 11:29 | 60.28240 | 24.79174 | 3666 ft | 223 kts | 249° |
| 2026-04-25 11:29 | 60.27609 | 24.76182 | 4200 ft | 241 kts | 249° |
| 2026-04-25 11:29 | 60.26938 | 24.73045 | 4877 ft | 252 kts | 249° |
| 2026-04-25 11:29 | 60.26235 | 24.69802 | 5764 ft | 256 kts | 248° |
| 2026-04-25 11:30 | 60.25524 | 24.66538 | 6676 ft | 259 kts | 248° |
| 2026-04-25 11:30 | 60.24806 | 24.63253 | 7578 ft | 261 kts | 249° |
| 2026-04-25 11:30 | 60.24077 | 24.59926 | 8480 ft | 263 kts | 249° |
| 2026-04-25 11:30 | 60.23340 | 24.56576 | 9404 ft | 265 kts | 249° |
| 2026-04-25 11:31 | 60.22598 | 24.53194 | 10130 ft | 273 kts | 249° |
| 2026-04-25 11:31 | 60.21811 | 24.49602 | 10624 ft | 289 kts | 249° |
| 2026-04-25 11:31 | 60.20987 | 24.45865 | 11387 ft | 295 kts | 248° |
| 2026-04-25 11:31 | 60.20162 | 24.42136 | 12184 ft | 297 kts | 248° |
| 2026-04-25 11:32 | 60.19321 | 24.38338 | 12850 ft | 303 kts | 248° |
| 2026-04-25 11:32 | 60.18460 | 24.34455 | 13587 ft | 307 kts | 247° |
| 2026-04-25 11:32 | 60.17586 | 24.30514 | 14376 ft | 310 kts | 246° |
| 2026-04-25 11:32 | 60.16722 | 24.26625 | 15187 ft | 312 kts | 246° |
| 2026-04-25 11:33 | 60.15832 | 24.22624 | 15996 ft | 314 kts | 246° |
| 2026-04-25 11:33 | 60.14951 | 24.18676 | 16744 ft | 316 kts | 246° |
| 2026-04-25 11:33 | 60.14046 | 24.14635 | 17481 ft | 318 kts | 246° |
| 2026-04-25 11:33 | 60.13151 | 24.10646 | 18186 ft | 321 kts | 246° |
| 2026-04-25 11:34 | 60.12225 | 24.06531 | 18898 ft | 323 kts | 246° |
| 2026-04-25 11:34 | 60.11302 | 24.02437 | 19585 ft | 325 kts | 246° |
| 2026-04-25 11:34 | 60.10371 | 23.98313 | 20205 ft | 328 kts | 245° |
| 2026-04-25 11:34 | 60.09431 | 23.94163 | 20782 ft | 333 kts | 246° |
| 2026-04-25 11:35 | 60.08463 | 23.89933 | 21375 ft | 336 kts | 244° |
| 2026-04-25 11:35 | 60.07400 | 23.85763 | 21963 ft | 340 kts | 243° |
| 2026-04-25 11:35 | 60.06311 | 23.81586 | 22508 ft | 343 kts | 243° |
| 2026-04-25 11:35 | 60.05200 | 23.77337 | 23037 ft | 347 kts | 243° |
| 2026-04-25 11:36 | 60.04086 | 23.73088 | 23568 ft | 350 kts | 243° |
| 2026-04-25 11:36 | 60.02953 | 23.68775 | 24086 ft | 353 kts | 243° |
| 2026-04-25 11:36 | 60.01813 | 23.64441 | 24571 ft | 357 kts | 243° |
| 2026-04-25 11:36 | 60.00655 | 23.60053 | 25021 ft | 360 kts | 243° |
| 2026-04-25 11:37 | 59.99491 | 23.55655 | 25453 ft | 363 kts | 243° |
| 2026-04-25 11:37 | 59.98301 | 23.51167 | 25866 ft | 366 kts | 243° |
| 2026-04-25 11:37 | 59.97119 | 23.46715 | 26277 ft | 369 kts | 243° |
| 2026-04-25 11:37 | 59.95916 | 23.42192 | 26671 ft | 371 kts | 244° |
| 2026-04-25 11:38 | 59.94694 | 23.37607 | 27013 ft | 374 kts | 244° |
| 2026-04-25 11:38 | 59.93483 | 23.33072 | 27344 ft | 377 kts | 243° |
| 2026-04-25 11:38 | 59.92259 | 23.28487 | 27678 ft | 380 kts | 243° |
| 2026-04-25 11:38 | 59.91020 | 23.23854 | 28015 ft | 382 kts | 243° |
| 2026-04-25 11:39 | 59.89752 | 23.19129 | 28341 ft | 384 kts | 243° |
| 2026-04-25 11:39 | 59.88499 | 23.14510 | 28658 ft | 386 kts | 243° |
| 2026-04-25 11:39 | 59.87210 | 23.09779 | 28951 ft | 389 kts | 243° |
| 2026-04-25 11:39 | 59.85934 | 23.05091 | 29237 ft | 392 kts | 243° |
| 2026-04-25 11:40 | 59.84635 | 23.00312 | 29541 ft | 393 kts | 244° |
| 2026-04-25 11:40 | 59.83347 | 22.95569 | 29848 ft | 395 kts | 244° |
| 2026-04-25 11:40 | 59.82050 | 22.90800 | 30236 ft | 393 kts | 244° |
| 2026-04-25 11:40 | 59.80758 | 22.86063 | 30603 ft | 391 kts | 244° |
| 2026-04-25 11:41 | 59.79465 | 22.81333 | 30902 ft | 391 kts | 244° |
| 2026-04-25 11:41 | 59.78168 | 22.76597 | 31162 ft | 392 kts | 244° |
| 2026-04-25 11:41 | 59.76878 | 22.71898 | 31424 ft | 393 kts | 244° |
| 2026-04-25 11:41 | 59.75569 | 22.67145 | 31695 ft | 394 kts | 244° |
| 2026-04-25 11:42 | 59.74260 | 22.62407 | 31966 ft | 394 kts | 244° |
| 2026-04-25 11:42 | 59.72939 | 22.57629 | 32220 ft | 395 kts | 244° |
| 2026-04-25 11:42 | 59.71635 | 22.52914 | 32465 ft | 395 kts | 244° |
| 2026-04-25 11:42 | 59.70312 | 22.48145 | 32709 ft | 396 kts | 244° |
| 2026-04-25 11:43 | 59.68999 | 22.43419 | 32946 ft | 396 kts | 244° |
| 2026-04-25 11:43 | 59.67672 | 22.38649 | 33182 ft | 397 kts | 244° |
| 2026-04-25 11:43 | 59.66340 | 22.33874 | 33411 ft | 397 kts | 243° |
| 2026-04-25 11:43 | 59.65004 | 22.29087 | 33654 ft | 398 kts | 243° |
| 2026-04-25 11:44 | 59.63683 | 22.24355 | 33878 ft | 399 kts | 243° |
| 2026-04-25 11:44 | 59.62338 | 22.19558 | 34117 ft | 400 kts | 243° |
| 2026-04-25 11:44 | 59.60997 | 22.14786 | 34353 ft | 400 kts | 243° |
| 2026-04-25 11:44 | 59.59651 | 22.10008 | 34566 ft | 400 kts | 243° |
| 2026-04-25 11:45 | 59.58296 | 22.05207 | 34774 ft | 401 kts | 243° |
| 2026-04-25 11:45 | 59.56950 | 22.00449 | 34972 ft | 402 kts | 244° |
| 2026-04-25 11:45 | 59.55588 | 21.95647 | 35171 ft | 403 kts | 244° |
| 2026-04-25 11:45 | 59.54218 | 21.90828 | 35357 ft | 403 kts | 244° |
| 2026-04-25 11:46 | 59.52862 | 21.86064 | 35530 ft | 404 kts | 244° |
| 2026-04-25 11:46 | 59.51488 | 21.81247 | 35696 ft | 405 kts | 244° |
| 2026-04-25 11:46 | 59.50111 | 21.76428 | 35827 ft | 407 kts | 244° |
| 2026-04-25 11:46 | 59.48725 | 21.71588 | 35956 ft | 408 kts | 244° |
| 2026-04-25 11:47 | 59.47332 | 21.66736 | 36076 ft | 410 kts | 244° |
| 2026-04-25 11:47 | 59.45932 | 21.61875 | 36178 ft | 412 kts | 244° |
| 2026-04-25 11:47 | 59.44524 | 21.56996 | 36288 ft | 413 kts | 244° |
| 2026-04-25 11:47 | 59.43111 | 21.52108 | 36382 ft | 415 kts | 244° |
| 2026-04-25 11:48 | 59.41687 | 21.47189 | 36484 ft | 416 kts | 244° |
| 2026-04-25 11:48 | 59.40263 | 21.42283 | 36594 ft | 417 kts | 244° |
| 2026-04-25 11:48 | 59.38829 | 21.37356 | 36699 ft | 418 kts | 244° |
| 2026-04-25 11:48 | 59.37391 | 21.32414 | 36793 ft | 419 kts | 243° |
| 2026-04-25 11:49 | 59.34500 | 21.22490 | 36977 ft | 422 kts | 243° |
| 2026-04-25 11:49 | 59.31586 | 21.12543 | 37171 ft | 423 kts | 243° |
| 2026-04-25 11:50 | 59.28656 | 21.02593 | 37330 ft | 426 kts | 243° |
| 2026-04-25 11:50 | 59.27184 | 20.97613 | 37432 ft | 426 kts | 244° |
| 2026-04-25 11:50 | 59.25694 | 20.92586 | 37506 ft | 427 kts | 243° |
| 2026-04-25 11:51 | 59.22729 | 20.82610 | 37516 ft | 428 kts | 244° |
| 2026-04-25 11:51 | 59.19742 | 20.72612 | 37520 ft | 427 kts | 244° |
| 2026-04-25 11:52 | 59.16932 | 20.62514 | 37528 ft | 425 kts | 247° |
| 2026-04-25 11:52 | 59.14279 | 20.52265 | 37522 ft | 425 kts | 247° |
| 2026-04-25 11:53 | 59.11633 | 20.42101 | 37534 ft | 424 kts | 248° |
| 2026-04-25 11:53 | 59.08974 | 20.31920 | 37531 ft | 425 kts | 246° |
| 2026-04-25 11:54 | 59.06300 | 20.21710 | 37540 ft | 425 kts | 247° |
| 2026-04-25 11:55 | 59.02282 | 20.06459 | 37544 ft | 425 kts | 247° |
| 2026-04-25 11:55 | 58.99598 | 19.96347 | 37554 ft | 424 kts | 247° |
| 2026-04-25 11:56 | 58.96892 | 19.86187 | 37558 ft | 424 kts | 247° |
| 2026-04-25 11:56 | 58.94210 | 19.76162 | 37556 ft | 423 kts | 247° |
| 2026-04-25 11:57 | 58.91511 | 19.66126 | 37561 ft | 422 kts | 247° |
| 2026-04-25 11:57 | 58.88792 | 19.56094 | 37569 ft | 422 kts | 247° |
| 2026-04-25 11:58 | 58.86052 | 19.46105 | 37559 ft | 422 kts | 247° |
| 2026-04-25 11:58 | 58.83326 | 19.36158 | 37558 ft | 422 kts | 247° |
| 2026-04-25 11:59 | 58.80598 | 19.26197 | 37563 ft | 424 kts | 246° |
| 2026-04-25 11:59 | 58.77846 | 19.16176 | 37555 ft | 424 kts | 246° |
| 2026-04-25 12:00 | 58.73722 | 19.01247 | 37576 ft | 424 kts | 246° |
| 2026-04-25 12:01 | 58.69564 | 18.86310 | 37573 ft | 423 kts | 246° |
| 2026-04-25 12:01 | 58.66796 | 18.76415 | 37585 ft | 422 kts | 246° |
| 2026-04-25 12:02 | 58.62631 | 18.61615 | 37604 ft | 420 kts | 246° |
| 2026-04-25 12:02 | 58.59861 | 18.51826 | 37604 ft | 419 kts | 246° |
| 2026-04-25 12:03 | 58.57096 | 18.42089 | 37602 ft | 417 kts | 246° |
| 2026-04-25 12:03 | 58.54339 | 18.32419 | 37607 ft | 417 kts | 245° |
| 2026-04-25 12:04 | 58.51568 | 18.22719 | 37599 ft | 416 kts | 245° |
| 2026-04-25 12:04 | 58.48801 | 18.13084 | 37588 ft | 415 kts | 245° |
| 2026-04-25 12:05 | 58.46029 | 18.03484 | 37580 ft | 414 kts | 245° |
| 2026-04-25 12:05 | 58.43264 | 17.93954 | 37606 ft | 413 kts | 245° |
| 2026-04-25 12:06 | 58.40482 | 17.84395 | 37614 ft | 413 kts | 245° |
| 2026-04-25 12:06 | 58.37708 | 17.74906 | 37612 ft | 413 kts | 245° |
| 2026-04-25 12:07 | 58.34905 | 17.65365 | 37617 ft | 412 kts | 245° |
| 2026-04-25 12:07 | 58.32120 | 17.55916 | 37630 ft | 413 kts | 245° |
| 2026-04-25 12:08 | 58.29315 | 17.46442 | 37605 ft | 413 kts | 245° |
| 2026-04-25 12:08 | 58.26503 | 17.36988 | 37623 ft | 414 kts | 245° |
| 2026-04-25 12:09 | 58.23689 | 17.27544 | 37601 ft | 412 kts | 244° |
| 2026-04-25 12:09 | 58.20862 | 17.18092 | 37618 ft | 412 kts | 244° |
| 2026-04-25 12:10 | 58.18031 | 17.08676 | 37606 ft | 412 kts | 244° |
| 2026-04-25 12:10 | 58.15214 | 16.99345 | 37596 ft | 411 kts | 244° |
| 2026-04-25 12:11 | 58.12372 | 16.89981 | 37592 ft | 411 kts | 244° |
| 2026-04-25 12:11 | 58.09539 | 16.80678 | 37605 ft | 411 kts | 244° |
| 2026-04-25 12:12 | 58.06675 | 16.71308 | 37622 ft | 412 kts | 244° |
| 2026-04-25 12:12 | 58.03829 | 16.62036 | 37598 ft | 411 kts | 244° |
| 2026-04-25 12:13 | 58.00956 | 16.52718 | 37620 ft | 412 kts | 244° |
| 2026-04-25 12:13 | 57.98074 | 16.43405 | 37613 ft | 413 kts | 244° |
| 2026-04-25 12:14 | 57.95200 | 16.34156 | 37607 ft | 412 kts | 243° |
| 2026-04-25 12:14 | 57.92311 | 16.24875 | 37603 ft | 412 kts | 244° |
| 2026-04-25 12:15 | 57.89431 | 16.15663 | 37609 ft | 412 kts | 243° |
| 2026-04-25 12:15 | 57.86504 | 16.06436 | 37630 ft | 411 kts | 243° |
| 2026-04-25 12:16 | 57.83591 | 15.97260 | 37624 ft | 412 kts | 244° |
| 2026-04-25 12:16 | 57.80676 | 15.88080 | 37623 ft | 412 kts | 244° |
| 2026-04-25 12:17 | 57.77753 | 15.78904 | 37625 ft | 413 kts | 244° |
| 2026-04-25 12:17 | 57.74809 | 15.69677 | 37630 ft | 413 kts | 244° |
| 2026-04-25 12:18 | 57.71870 | 15.60513 | 37588 ft | 411 kts | 244° |
| 2026-04-25 12:18 | 57.68935 | 15.51390 | 37620 ft | 413 kts | 244° |
| 2026-04-25 12:19 | 57.64499 | 15.37669 | 37620 ft | 415 kts | 244° |
| 2026-04-25 12:20 | 57.61527 | 15.28508 | 37624 ft | 415 kts | 243° |
| 2026-04-25 12:20 | 57.58550 | 15.19364 | 37631 ft | 415 kts | 243° |
| 2026-04-25 12:21 | 57.55545 | 15.10175 | 37636 ft | 416 kts | 243° |
| 2026-04-25 12:21 | 57.52548 | 15.01055 | 37620 ft | 415 kts | 243° |
| 2026-04-25 12:22 | 57.49548 | 14.91962 | 37628 ft | 415 kts | 243° |
| 2026-04-25 12:22 | 57.46533 | 14.82858 | 37631 ft | 415 kts | 243° |
| 2026-04-25 12:23 | 57.43523 | 14.73809 | 37628 ft | 415 kts | 243° |
| 2026-04-25 12:23 | 57.40477 | 14.64677 | 37633 ft | 416 kts | 243° |
| 2026-04-25 12:24 | 57.37442 | 14.55611 | 37639 ft | 417 kts | 243° |
| 2026-04-25 12:24 | 57.34399 | 14.46562 | 37634 ft | 418 kts | 243° |
| 2026-04-25 12:25 | 57.31340 | 14.37492 | 37642 ft | 418 kts | 243° |
| 2026-04-25 12:25 | 57.28273 | 14.28430 | 37660 ft | 418 kts | 243° |
| 2026-04-25 12:26 | 57.25202 | 14.19375 | 37655 ft | 418 kts | 243° |
| 2026-04-25 12:26 | 57.22102 | 14.10290 | 37663 ft | 419 kts | 243° |
| 2026-04-25 12:27 | 57.18946 | 14.01307 | 37662 ft | 421 kts | 240° |
| 2026-04-25 12:27 | 57.15264 | 13.92833 | 37680 ft | 427 kts | 233° |
| 2026-04-25 12:28 | 57.11024 | 13.85182 | 37665 ft | 432 kts | 226° |
| 2026-04-25 12:28 | 57.08725 | 13.81718 | 37548 ft | 433 kts | 223° |
| 2026-04-25 12:28 | 57.06333 | 13.78387 | 36925 ft | 439 kts | 223° |
| 2026-04-25 12:28 | 57.03890 | 13.74991 | 36059 ft | 446 kts | 224° |
| 2026-04-25 12:29 | 57.01431 | 13.71577 | 35423 ft | 446 kts | 224° |
| 2026-04-25 12:29 | 56.98956 | 13.68155 | 34890 ft | 443 kts | 225° |
| 2026-04-25 12:29 | 56.96529 | 13.64797 | 34301 ft | 438 kts | 225° |
| 2026-04-25 12:29 | 56.94128 | 13.61484 | 33459 ft | 433 kts | 226° |
| 2026-04-25 12:30 | 56.91768 | 13.58231 | 32478 ft | 431 kts | 226° |
| 2026-04-25 12:30 | 56.89410 | 13.54977 | 31631 ft | 424 kts | 227° |
| 2026-04-25 12:30 | 56.87089 | 13.51795 | 31048 ft | 420 kts | 227° |
| 2026-04-25 12:30 | 56.84759 | 13.48607 | 30464 ft | 419 kts | 228° |
| 2026-04-25 12:31 | 56.82439 | 13.45421 | 29824 ft | 418 kts | 228° |
| 2026-04-25 12:31 | 56.80143 | 13.42264 | 29274 ft | 413 kts | 228° |
| 2026-04-25 12:31 | 56.77877 | 13.39167 | 28839 ft | 405 kts | 229° |
| 2026-04-25 12:31 | 56.75658 | 13.36138 | 28406 ft | 397 kts | 229° |
| 2026-04-25 12:32 | 56.73461 | 13.33137 | 28016 ft | 389 kts | 228° |
| 2026-04-25 12:32 | 56.71337 | 13.30228 | 27640 ft | 381 kts | 228° |
| 2026-04-25 12:32 | 56.69236 | 13.27355 | 27285 ft | 375 kts | 229° |
| 2026-04-25 12:32 | 56.67172 | 13.24538 | 26845 ft | 370 kts | 229° |
| 2026-04-25 12:33 | 56.65142 | 13.21770 | 26411 ft | 367 kts | 229° |
| 2026-04-25 12:33 | 56.63126 | 13.19031 | 26016 ft | 362 kts | 229° |
| 2026-04-25 12:33 | 56.61120 | 13.16329 | 25645 ft | 357 kts | 229° |
| 2026-04-25 12:33 | 56.59143 | 13.13671 | 25246 ft | 353 kts | 229° |
| 2026-04-25 12:34 | 56.57176 | 13.11027 | 24816 ft | 351 kts | 229° |
| 2026-04-25 12:34 | 56.55234 | 13.08412 | 24391 ft | 347 kts | 230° |
| 2026-04-25 12:34 | 56.53318 | 13.05842 | 23942 ft | 346 kts | 230° |
| 2026-04-25 12:34 | 56.52036 | 13.04115 | 23622 ft | 345 kts | 230° |
| 2026-04-25 12:35 | 56.49475 | 13.00677 | 23065 ft | 341 kts | 229° |
| 2026-04-25 12:35 | 56.47597 | 12.98158 | 22616 ft | 340 kts | 229° |
| 2026-04-25 12:35 | 56.45712 | 12.95635 | 22164 ft | 339 kts | 229° |
| 2026-04-25 12:35 | 56.43829 | 12.93118 | 21744 ft | 337 kts | 229° |
| 2026-04-25 12:36 | 56.41949 | 12.90610 | 21307 ft | 335 kts | 229° |
| 2026-04-25 12:36 | 56.40074 | 12.88114 | 20875 ft | 334 kts | 229° |
| 2026-04-25 12:36 | 56.38235 | 12.85666 | 20457 ft | 332 kts | 229° |
| 2026-04-25 12:36 | 56.36379 | 12.83199 | 20057 ft | 329 kts | 229° |
| 2026-04-25 12:37 | 56.34549 | 12.80777 | 19621 ft | 328 kts | 229° |
| 2026-04-25 12:37 | 56.32735 | 12.78368 | 19229 ft | 326 kts | 228° |
| 2026-04-25 12:37 | 56.30908 | 12.75948 | 18813 ft | 325 kts | 229° |
| 2026-04-25 12:37 | 56.29089 | 12.73537 | 18407 ft | 323 kts | 228° |
| 2026-04-25 12:38 | 56.27298 | 12.71176 | 18023 ft | 321 kts | 228° |
| 2026-04-25 12:38 | 56.25514 | 12.68819 | 17622 ft | 319 kts | 228° |
| 2026-04-25 12:38 | 56.23730 | 12.66470 | 17207 ft | 318 kts | 228° |
| 2026-04-25 12:38 | 56.21938 | 12.64158 | 16792 ft | 320 kts | 224° |
| 2026-04-25 12:39 | 56.19798 | 12.62654 | 16009 ft | 357 kts | 199° |
| 2026-04-25 12:39 | 56.17216 | 12.62950 | 15119 ft | 392 kts | 172° |
| 2026-04-25 12:39 | 56.14649 | 12.64771 | 14508 ft | 400 kts | 161° |
| 2026-04-25 12:39 | 56.12168 | 12.66933 | 14066 ft | 396 kts | 160° |
| 2026-04-25 12:40 | 56.09703 | 12.69051 | 13596 ft | 392 kts | 161° |
| 2026-04-25 12:40 | 56.07249 | 12.71048 | 13099 ft | 388 kts | 163° |
| 2026-04-25 12:40 | 56.04797 | 12.72949 | 12604 ft | 384 kts | 163° |
| 2026-04-25 12:40 | 56.02354 | 12.74786 | 12175 ft | 379 kts | 164° |
| 2026-04-25 12:41 | 55.99945 | 12.76570 | 11823 ft | 372 kts | 164° |
| 2026-04-25 12:41 | 55.97582 | 12.78299 | 11460 ft | 366 kts | 164° |
| 2026-04-25 12:41 | 55.95245 | 12.79998 | 11090 ft | 361 kts | 164° |
| 2026-04-25 12:41 | 55.92950 | 12.81663 | 10730 ft | 356 kts | 165° |
| 2026-04-25 12:42 | 55.90677 | 12.83315 | 10257 ft | 343 kts | 165° |
| 2026-04-25 12:42 | 55.89244 | 12.84353 | 9876 ft | 336 kts | 165° |
| 2026-04-25 12:42 | 55.86438 | 12.86371 | 9124 ft | 322 kts | 165° |
| 2026-04-25 12:42 | 55.84372 | 12.87854 | 8473 ft | 315 kts | 165° |
| 2026-04-25 12:43 | 55.82363 | 12.89289 | 7780 ft | 311 kts | 164° |
| 2026-04-25 12:43 | 55.80378 | 12.90708 | 7082 ft | 307 kts | 163° |
| 2026-04-25 12:43 | 55.76506 | 12.93486 | 6291 ft | 298 kts | 163° |
| 2026-04-25 12:44 | 55.74612 | 12.94848 | 5974 ft | 295 kts | 163° |
| 2026-04-25 12:44 | 55.72704 | 12.96220 | 5664 ft | 293 kts | 163° |
| 2026-04-25 12:44 | 55.68970 | 12.98891 | 5056 ft | 288 kts | 163° |
| 2026-04-25 12:45 | 55.67140 | 13.00199 | 4770 ft | 285 kts | 163° |
| 2026-04-25 12:45 | 55.65316 | 13.01501 | 4482 ft | 283 kts | 163° |
| 2026-04-25 12:45 | 55.61685 | 13.04089 | 3887 ft | 282 kts | 163° |
| 2026-04-25 12:46 | 55.59841 | 13.05396 | 3459 ft | 284 kts | 163° |
| 2026-04-25 12:46 | 55.58041 | 13.06667 | 3299 ft | 275 kts | 163° |
| 2026-04-25 12:46 | 55.56300 | 13.07903 | 3139 ft | 267 kts | 163° |
| 2026-04-25 12:46 | 55.54607 | 13.09114 | 2984 ft | 259 kts | 163° |
| 2026-04-25 12:47 | 55.52976 | 13.10295 | 2944 ft | 255 kts | 163° |
| 2026-04-25 12:47 | 55.51315 | 13.11502 | 2938 ft | 257 kts | 163° |
| 2026-04-25 12:47 | 55.49657 | 13.12545 | 2933 ft | 250 kts | 178° |
| 2026-04-25 12:47 | 55.48021 | 13.12325 | 2934 ft | 229 kts | 212° |
| 2026-04-25 12:48 | 55.46835 | 13.10756 | 2936 ft | 207 kts | 245° |
| 2026-04-25 12:48 | 55.46444 | 13.08483 | 2942 ft | 190 kts | 279° |
| 2026-04-25 12:48 | 55.46772 | 13.06270 | 2954 ft | 188 kts | 295° |
| 2026-04-25 12:48 | 55.47399 | 13.04250 | 2949 ft | 188 kts | 303° |
| 2026-04-25 12:49 | 55.48156 | 13.02353 | 2939 ft | 189 kts | 304° |
| 2026-04-25 12:49 | 55.48914 | 13.00469 | 2946 ft | 190 kts | 304° |
| 2026-04-25 12:49 | 55.49663 | 12.98540 | 2946 ft | 190 kts | 303° |
| 2026-04-25 12:49 | 55.50395 | 12.96599 | 2951 ft | 189 kts | 303° |
| 2026-04-25 12:50 | 55.51109 | 12.94670 | 2956 ft | 190 kts | 302° |
| 2026-04-25 12:50 | 55.51819 | 12.92731 | 2961 ft | 189 kts | 302° |
| 2026-04-25 12:50 | 55.52539 | 12.90756 | 2954 ft | 189 kts | 302° |
| 2026-04-25 12:50 | 55.53246 | 12.88816 | 2899 ft | 190 kts | 302° |
| 2026-04-25 12:51 | 55.53966 | 12.86845 | 2681 ft | 189 kts | 302° |
| 2026-04-25 12:51 | 55.54669 | 12.84924 | 2425 ft | 187 kts | 302° |
| 2026-04-25 12:51 | 55.55365 | 12.83027 | 2173 ft | 183 kts | 302° |
| 2026-04-25 12:51 | 55.56056 | 12.81147 | 1926 ft | 178 kts | 302° |
| 2026-04-25 12:52 | 55.56694 | 12.79415 | 1702 ft | 162 kts | 302° |
| 2026-04-25 12:52 | 55.57268 | 12.77855 | 1575 ft | 141 kts | 302° |
| 2026-04-25 12:52 | 55.57769 | 12.76497 | 1345 ft | 125 kts | 302° |
| 2026-04-25 12:52 | 55.58221 | 12.75271 | 1159 ft | 116 kts | 302° |
| 2026-04-25 12:53 | 55.58663 | 12.74072 | 993 ft | 116 kts | 302° |
| 2026-04-25 12:53 | 55.59097 | 12.72892 | 854 ft | 115 kts | 302° |
| 2026-04-25 12:53 | 55.59537 | 12.71702 | 701 ft | 115 kts | 301° |
| 2026-04-25 12:53 | 55.59972 | 12.70525 | 554 ft | 115 kts | 301° |
| 2026-04-25 12:54 | 55.60412 | 12.69337 | 382 ft | 114 kts | 301° |
| 2026-04-25 12:54 | 55.60843 | 12.68171 | 227 ft | 113 kts | 301° |
| 2026-04-25 12:54 | 55.61260 | 12.67044 | 64 ft | 110 kts | 301° |
| 2026-04-25 12:54 | 55.61679 | 12.65935 | 12 ft | 94 kts | 301° |
| 2026-04-25 12:55 | 55.61882 | 12.65352 | 15 ft | 36 kts | 303° |
| 2026-04-25 12:55 | 55.61966 | 12.65127 | 15 ft | 25 kts | 304° |
| 2026-04-25 12:55 | 55.62125 | 12.65083 | 15 ft | 18 kts | 34° |
| 2026-04-25 12:55 | 55.62188 | 12.65153 | 16 ft | 8 kts | 30° |
| 2026-04-25 12:56 | 55.62236 | 12.65166 | 17 ft | 6 kts | 332° |
| 2026-04-25 12:56 | 55.62262 | 12.65108 | 17 ft | 5 kts | 302° |
| 2026-04-25 12:56 | 55.62283 | 12.65048 | 18 ft | 5 kts | 301° |
| 2026-04-25 12:56 | 55.62303 | 12.64989 | 18 ft | 6 kts | 303° |
| 2026-04-25 12:57 | 55.62333 | 12.64911 | 17 ft | 9 kts | 303° |
| 2026-04-25 12:57 | 55.62373 | 12.64801 | 16 ft | 11 kts | 305° |
| 2026-04-25 12:57 | 55.62420 | 12.64680 | 17 ft | 11 kts | 304° |
| 2026-04-25 12:57 | 55.62464 | 12.64563 | 18 ft | 11 kts | 304° |
| 2026-04-25 12:58 | 55.62506 | 12.64447 | 18 ft | 11 kts | 303° |
| 2026-04-25 12:58 | 55.62553 | 12.64321 | 16 ft | 10 kts | 304° |
| 2026-04-25 12:58 | 55.62602 | 12.64259 | 17 ft | 8 kts | 13° |
| 2026-04-25 12:58 | 55.62648 | 12.64300 | 18 ft | 7 kts | 25° |
| 2026-04-25 12:59 | 55.62680 | 12.64339 | 18 ft | 5 kts | 78° |
| 2026-04-25 12:59 | 55.62675 | 12.64403 | 19 ft | 5 kts | 101° |
| 2026-04-25 12:59 | 55.62672 | 12.64431 | 18 ft | 1 kts | 101° |
| 2026-04-25 12:59 | 55.62672 | 12.64434 | 18 ft | 0 kts | 101° |